• Join FlightAware (Why Join?)
  • Login
  • US Flag 
02:51AM EDT


 

Airport Tracker/Info


-or-


 

Live Flight TrackerFlight Track Log ✈ JBU33 ✈ 22-Jun-2013 ✈ KBTV - KJFK

Flight Track Log - Related Links

Times and Time Zones

All times are in EDT time to prevent confusion due to time zone crossing. See the JBU33 flight status page for this flight to view local times or setup timezone preferences in your user account.

Time Position Orientation Groundspeed Altitude Reporting Facility
EDT Latitude Longitude Course Direction KTS MPH feet Rate Location/Type
01:17PM 44.4156 -73.1289 196° South 200 230 2,700  Level Boston Center
01:18PM 44.3508 -73.1542 196° South 221 254 5,700 3,300 Climbing Boston Center
01:19PM 44.2797 -73.1853 197° South 260 299 9,300 3,420 Climbing Boston Center
01:20PM 44.2025 -73.2161 196° South 287 330 12,600 2,460 Climbing Boston Center
01:21PM 43.8536 -73.3754 196° South  Level FlightAware Approximate
01:21PM 44.1125 -73.2556 197° South 320 368 14,300  Level Boston Center
01:22PM 43.7980 -73.3976 196° South  Level FlightAware Approximate
01:22PM 44.0144 -73.2944 196° South 355 409 16,800  Level Boston Center
01:23PM 43.9097 -73.3392 197° South 388 447 19,300 2,280 Climbing Boston Center
01:24PM 43.8053 -73.3808 196° South 394 453 21,400 1,860 Climbing Boston Center
01:25PM 43.6967 -73.4281 197° South 410 472 23,100 1,680 Climbing Boston Center
01:26PM 43.5900 -73.4664 195° South 427 491 24,800 1,680 Climbing Boston Center
01:27PM 43.4456 -73.5239 196° South 439 505 26,900 1,440 Climbing Boston Center
01:28PM 43.3264 -73.5731 197° South 444 511 28,000 540 Climbing Boston Center
01:29PM 43.2050 -73.6194 196° South 444 511 28,000  Level Boston Center
01:30PM 43.0836 -73.6711 197° South 449 517 28,000  Level Boston Center
01:31PM 42.9600 -73.7197 196° South 459 528 28,000  Level Boston Center
01:32PM 42.8386 -73.7681 196° South 459 528 28,000  Level Boston Center
01:33PM 42.7194 -73.8050 193° South 459 528 28,000  Level Boston Center
01:34PM 42.5817 -73.8133 183° South 459 528 28,000  Level Boston Center
01:35PM 42.4547 -73.8133 180° South 453 521 28,000  Level Boston Center
01:36PM 42.3275 -73.8161 181° South 453 521 28,000  Level Boston Center
01:37PM 42.2022 -73.8189 181° South 453 521 28,000  Level Boston Center
01:38PM 42.0772 -73.8331 185° South 458 527 28,000  Level Boston Center
01:39PM 41.9578 -73.8722 194° South 463 533 28,000 -720 Level Boston Center
01:41PM 41.7289 -73.9508 194° South 449 517 26,000 -1,320 Descending New York Center
01:42PM 41.6658 -74.0506 230° Southwest 375 432 24,200 -1,920 Descending New York Center
01:43PM 41.5736 -74.0764 192° South 342 394 22,200 -1,800 Descending New York Center
01:44PM 41.4717 -74.0686 177° South 352 405 20,600 -1,140 Descending New York Center
01:45PM 41.3778 -74.0778 184° South 352 405 20,000 -360 Descending New York Center
01:46PM 41.3008 -74.1431 213° Southwest 335 386 20,000 -60 Level New York Center
01:47PM 41.2158 -74.1994 207° Southwest 335 386 19,900 -300 Descending New York Center
01:48PM 41.1183 -74.1864 174° South 335 386 19,400 -480 Descending New York Center
01:49PM 41.0294 -74.1653 170° South 346 398 19,000 -300 Descending New York Center
01:50PM 40.9261 -74.1353 168° South 346 398 18,900 -600 Descending New York Center
01:51PM 40.8706 -74.0447 129° Southeast 346 398 17,800 -1,560 Descending New York Center
01:52PM 40.8111 -73.9242 123° Southeast 351 404 15,900 -1,740 Descending New York Center
01:53PM 40.7636 -73.8286 123° Southeast 351 404 14,400 -1,680 Descending New York Center
01:54PM 40.7103 -73.7222 123° Southeast 331 381 12,600 -1,680 Descending New York Center
01:55PM 40.6361 -73.6917 163° South 298 343 11,100 -1,740 Descending New York Center
01:56PM 40.5472 -73.6578 164° South 304 350 9,200 -1,560 Descending New York Center
01:57PM 40.4689 -73.6272 163° South 304 350 8,000 -1,080 Descending New York Center
01:58PM 40.3986 -73.6025 165° South 297 342 7,100 -1,440 Descending New York Center
01:59PM 40.3367 -73.6600 215° Southwest 248 285 5,200 -1,380 Descending New York Center
02:00PM 40.3328 -73.7306 266° West 210 242 4,400 -1,020 Descending New York Center
02:01PM 40.3561 -73.8025 293° West 211 243 3,200 -720 Descending New York Center
02:02PM 40.3958 -73.8722 307° West 217 250 3,000 -240 Descending New York Center